Terminal Aerodrome Forecast
Issued by NWS

Home | Current Version | Previous Version | Text Only | Print | Product List | Glossary On
Versions: 1 2 3 4 5 6 7 8 9 10 11 12 13 14 15 16 17 18 19 20 21 22 23 24 25 26 27 28 29
000
FTUS43 KLSX 230711 AAA
TAFSUS
TAF AMD
KSUS 230711Z 2307/2406 25016G26KT P6SM -SN OVC015
     FM230900 27015G26KT P6SM OVC015
     FM231700 29014G25KT P6SM OVC020
     FM232300 29010G20KT P6SM BKN035
     FM240000 29006KT P6SM SCT040=

USA.gov is the U.S. government's official web portal to all federal, state and local government web resources and services.